Time;durP1;ratioP1;P1;durP2;ratioP2;P2;SDS_P1;SDS_P2;PMS_P1;PMS_P2;Temp;Humidity;BMP_temperature;BMP_pressure;BME280_temperature;BME280_humidity;BME280_pressure;Samples;Min_cycle;Max_cycle;Signal;HPM_P1;HPM_P2
2021/06/12 00:01:47;;;;;;;8.32;7.63;;;21.20;99.90;;;;;;5033855;28;20176;-86
2021/06/12 00:04:12;;;;;;;8.75;7.95;;;21.20;99.90;;;;;;5032847;28;20041;-86
2021/06/12 00:06:38;;;;;;;7.88;7.05;;;21.10;99.90;;;;;;5015928;28;20021;-86
2021/06/12 00:09:05;;;;;;;7.78;6.80;;;21.20;99.90;;;;;;5033450;28;20564;-86
2021/06/12 00:11:31;;;;;;;7.38;6.50;;;21.10;99.90;;;;;;5033121;28;20021;-86
2021/06/12 00:13:56;;;;;;;7.30;6.70;;;21.10;99.90;;;;;;5033776;28;20068;-86
2021/06/12 00:16:22;;;;;;;8.70;7.35;;;21.10;99.90;;;;;;5033577;28;20040;-86
2021/06/12 00:18:48;;;;;;;8.07;7.28;;;20.90;99.90;;;;;;5032337;28;20021;-85
2021/06/12 00:21:13;;;;;;;8.77;7.30;;;20.90;99.90;;;;;;5032784;28;20457;-86
2021/06/12 00:23:39;;;;;;;8.10;7.30;;;20.90;99.90;;;;;;5033330;28;20025;-86
2021/06/12 00:26:05;;;;;;;8.30;7.50;;;20.80;99.90;;;;;;5033063;28;20070;-86
2021/06/12 00:28:30;;;;;;;8.20;7.43;;;20.80;99.90;;;;;;5033476;28;20017;-85
2021/06/12 00:30:56;;;;;;;8.00;7.30;;;20.80;99.90;;;;;;5032618;28;20029;-85
2021/06/12 00:33:22;;;;;;;8.05;7.28;;;20.70;99.90;;;;;;5032479;28;20111;-86
2021/06/12 00:35:47;;;;;;;8.75;7.95;;;20.70;99.90;;;;;;5032500;28;20026;-85
2021/06/12 00:38:13;;;;;;;8.30;7.60;;;20.70;99.90;;;;;;5032924;28;20034;-86
2021/06/12 00:40:40;;;;;;;8.85;7.38;;;20.70;99.90;;;;;;5033684;28;20494;-86
2021/06/12 00:43:05;;;;;;;8.15;7.40;;;20.50;99.90;;;;;;5014691;28;20057;-86
2021/06/12 00:45:32;;;;;;;7.95;7.15;;;20.60;99.90;;;;;;5032474;28;20461;-86
2021/06/12 00:47:59;;;;;;;7.32;6.72;;;20.60;99.90;;;;;;5031913;28;20022;-86
2021/06/12 00:50:30;;;;;;;7.20;6.60;;;20.60;99.90;;;;;;5033424;28;20061;-85
2021/06/12 00:52:55;;;;;;;7.50;6.80;;;20.70;99.90;;;;;;5029548;28;20480;-86
2021/06/12 00:55:21;;;;;;;11.05;7.30;;;20.40;99.90;;;;;;5032677;28;20112;-86
2021/06/12 00:57:48;;;;;;;7.93;7.28;;;20.50;99.90;;;;;;5032034;28;20021;-86
2021/06/12 01:00:17;;;;;;;8.15;7.43;;;20.40;99.90;;;;;;5032439;28;20033;-85
2021/06/12 01:02:42;;;;;;;8.32;7.53;;;20.20;99.90;;;;;;5031845;28;20025;-86
2021/06/12 01:05:10;;;;;;;8.05;7.40;;;20.20;99.90;;;;;;5031580;28;20095;-86
2021/06/12 01:07:36;;;;;;;8.13;7.30;;;20.30;99.90;;;;;;5030714;28;20025;-86
2021/06/12 01:10:07;;;;;;;8.15;7.38;;;20.40;99.90;;;;;;5032234;28;20033;-86
2021/06/12 01:12:46;;;;;;;7.70;7.05;;;20.30;99.90;;;;;;5032371;28;20072;-85
2021/06/12 01:15:13;;;;;;;8.48;7.53;;;20.30;99.90;;;;;;5032302;28;20036;-86
2021/06/12 01:17:48;;;;;;;8.00;7.20;;;20.20;99.90;;;;;;5031725;28;20025;-85
2021/06/12 01:20:33;;;;;;;7.68;6.97;;;20.20;99.90;;;;;;5032284;28;20032;-86
2021/06/12 01:23:40;;;;;;;8.05;7.38;;;20.10;99.90;;;;;;5015187;28;20072;-85
2021/06/12 01:26:23;;;;;;;8.13;7.40;;;20.00;99.90;;;;;;4949577;28;20039;-86
2021/06/12 01:29:02;;;;;;;8.02;7.43;;;19.80;99.90;;;;;;4951516;28;20031;-86
2021/06/12 01:31:28;;;;;;;8.23;7.55;;;19.80;99.90;;;;;;4950624;28;20493;-86
2021/06/12 01:33:54;;;;;;;8.65;7.72;;;19.80;99.90;;;;;;4951926;28;20110;-86
2021/06/12 01:36:23;;;;;;;9.00;8.20;;;19.80;99.90;;;;;;4951087;28;20039;-85
2021/06/12 01:38:52;;;;;;;8.48;7.78;;;19.80;99.90;;;;;;4951452;28;20035;-86
2021/06/12 01:41:21;;;;;;;8.52;7.72;;;19.80;99.90;;;;;;4950863;28;20118;-86
2021/06/12 01:43:47;;;;;;;8.77;7.95;;;19.80;99.90;;;;;;4951545;28;20628;-86
2021/06/12 01:46:14;;;;;;;8.93;8.07;;;19.80;99.90;;;;;;4951217;28;20139;-85
2021/06/12 01:48:45;;;;;;;10.48;7.82;;;19.70;99.90;;;;;;4950968;28;20074;-85
2021/06/12 01:51:12;;;;;;;8.43;7.70;;;19.60;99.90;;;;;;4951462;28;20041;-86
2021/06/12 01:53:40;;;;;;;8.50;7.82;;;19.60;99.90;;;;;;4951338;28;20432;-86
2021/06/12 01:56:08;;;;;;;8.43;7.72;;;19.50;99.90;;;;;;4951310;28;20067;-86
2021/06/12 01:58:37;;;;;;;9.30;8.27;;;19.40;99.90;;;;;;4951837;28;20034;-85
2021/06/12 02:01:04;;;;;;;8.73;7.88;;;19.40;99.90;;;;;;4950547;28;20152;-85
2021/06/12 02:03:31;;;;;;;9.13;8.13;;;19.40;99.90;;;;;;5010278;28;20112;-86
2021/06/12 02:05:59;;;;;;;9.07;8.18;;;19.50;99.90;;;;;;5030993;28;20029;-86
2021/06/12 02:08:25;;;;;;;8.60;7.93;;;19.50;99.90;;;;;;5031355;28;20025;-85
2021/06/12 02:10:52;;;;;;;8.50;7.60;;;19.50;99.90;;;;;;5031704;28;20053;-86
2021/06/12 02:13:21;;;;;;;8.80;8.00;;;19.50;99.90;;;;;;5030815;28;20037;-86
2021/06/12 02:15:52;;;;;;;10.13;8.23;;;19.30;99.90;;;;;;5030534;28;20024;-86
2021/06/12 02:18:19;;;;;;;8.73;7.93;;;19.30;99.90;;;;;;5031088;28;20037;-86
2021/06/12 02:20:47;;;;;;;8.98;8.18;;;19.30;99.90;;;;;;5031035;28;20026;-85
2021/06/12 02:23:13;;;;;;;9.85;7.90;;;19.30;99.90;;;;;;5031162;28;20049;-86
2021/06/12 02:25:40;;;;;;;8.75;8.02;;;19.30;99.90;;;;;;5031440;28;20032;-85
2021/06/12 02:28:10;;;;;;;9.13;7.88;;;19.20;99.90;;;;;;5030573;28;20560;-86
2021/06/12 02:30:53;;;;;;;10.13;8.15;;;19.20;99.90;;;;;;5031343;28;20017;-85
2021/06/12 02:33:21;;;;;;;8.82;7.68;;;19.20;99.90;;;;;;5030720;28;20092;-86
2021/06/12 02:35:46;;;;;;;8.75;7.95;;;19.10;99.90;;;;;;5030901;28;20414;-85
2021/06/12 02:38:12;;;;;;;9.20;8.35;;;19.00;99.90;;;;;;5031070;28;20034;-86
2021/06/12 02:40:38;;;;;;;8.80;7.93;;;18.90;1.00;;;;;;5031344;28;20567;-86
2021/06/12 02:43:04;;;;;;;9.48;8.55;;;18.90;1.00;;;;;;5030529;28;20021;-85
2021/06/12 02:45:30;;;;;;;9.10;8.18;;;18.90;1.00;;;;;;5030698;28;20033;-85
2021/06/12 02:48:13;;;;;;;8.95;8.10;;;18.90;1.00;;;;;;5030638;28;20104;-85
2021/06/12 02:50:40;;;;;;;9.20;8.30;;;18.90;1.00;;;;;;5017337;28;20401;-85
2021/06/12 02:53:08;;;;;;;8.57;7.72;;;18.90;1.00;;;;;;5030774;28;20033;-85
2021/06/12 02:55:37;;;;;;;8.43;7.70;;;19.00;1.00;;;;;;5031007;28;20033;-86
2021/06/12 02:58:04;;;;;;;8.55;7.85;;;19.00;1.00;;;;;;5030083;28;20040;-85
2021/06/12 03:00:31;;;;;;;9.00;8.20;;;18.80;1.00;;;;;;5030804;28;20026;-85
2021/06/12 03:02:57;;;;;;;8.57;7.88;;;18.90;1.00;;;;;;5030505;28;20027;-86
2021/06/12 03:05:27;;;;;;;9.35;8.45;;;18.90;1.00;;;;;;5015149;28;20036;-86
2021/06/12 03:07:56;;;;;;;8.75;8.05;;;18.80;1.00;;;;;;5027383;28;20440;-85
2021/06/12 03:10:27;;;;;;;9.25;8.15;;;18.80;1.00;;;;;;5030543;28;20091;-85
2021/06/12 03:12:55;;;;;;;8.70;7.90;;;18.70;1.00;;;;;;5008221;28;20040;-86
2021/06/12 03:15:22;;;;;;;8.18;7.47;;;18.90;1.00;;;;;;5030294;28;20057;-84
2021/06/12 03:17:50;;;;;;;8.85;8.00;;;18.80;1.00;;;;;;5030466;28;20398;-85
2021/06/12 03:20:17;;;;;;;9.27;8.10;;;18.70;1.00;;;;;;5030562;28;20040;-85
2021/06/12 03:22:46;;;;;;;8.50;7.80;;;18.70;1.00;;;;;;5031372;28;20061;-85
2021/06/12 03:25:15;;;;;;;9.27;8.00;;;18.70;1.00;;;;;;5030617;28;20029;-85
2021/06/12 03:27:42;;;;;;;8.68;7.97;;;18.80;1.00;;;;;;5029933;28;20029;-86
2021/06/12 03:30:09;;;;;;;8.32;7.53;;;18.70;1.00;;;;;;5011961;28;20502;-85
2021/06/12 03:32:35;;;;;;;8.70;7.93;;;18.80;1.00;;;;;;5033869;28;20041;-86
2021/06/12 03:35:03;;;;;;;11.15;8.57;;;18.70;1.00;;;;;;5034146;28;20021;-86
2021/06/12 03:37:29;;;;;;;9.02;8.25;;;18.60;1.00;;;;;;5033415;28;20060;-85
2021/06/12 03:39:56;;;;;;;9.18;8.38;;;18.60;1.00;;;;;;5033683;28;20025;-85
2021/06/12 03:42:22;;;;;;;8.80;7.85;;;18.60;1.00;;;;;;5034022;28;20029;-85
2021/06/12 03:44:49;;;;;;;8.13;7.32;;;18.60;1.00;;;;;;5015715;28;20032;-86
2021/06/12 03:47:16;;;;;;;9.68;7.57;;;18.70;1.00;;;;;;5033563;28;20120;-85
2021/06/12 03:49:42;;;;;;;8.77;7.97;;;18.60;1.00;;;;;;5034516;28;20547;-85
2021/06/12 03:52:09;;;;;;;9.63;7.95;;;18.60;1.00;;;;;;5033511;28;20033;-85
2021/06/12 03:54:37;;;;;;;9.38;8.48;;;18.50;1.00;;;;;;5033263;28;20056;-86
2021/06/12 03:57:04;;;;;;;8.77;8.05;;;18.40;1.00;;;;;;5033314;28;20561;-85
2021/06/12 03:59:30;;;;;;;8.93;8.05;;;18.40;1.00;;;;;;5033826;28;20456;-85
2021/06/12 04:01:57;;;;;;;8.65;7.65;;;18.40;1.00;;;;;;5034067;28;20063;-85
2021/06/12 04:04:24;;;;;;;8.93;8.13;;;18.40;1.00;;;;;;5033127;28;20025;-85
2021/06/12 04:06:50;;;;;;;9.60;8.20;;;18.50;1.00;;;;;;5033589;28;20018;-85
2021/06/12 04:09:16;;;;;;;8.63;7.93;;;18.60;1.00;;;;;;5033597;28;20517;-86
2021/06/12 04:11:41;;;;;;;9.48;8.52;;;18.50;1.00;;;;;;5032702;28;20533;-85
2021/06/12 04:14:07;;;;;;;9.75;8.75;;;18.50;1.00;;;;;;5033267;28;20528;-85
2021/06/12 04:16:33;;;;;;;8.73;7.93;;;18.40;1.00;;;;;;5033554;28;20030;-86
2021/06/12 04:19:02;;;;;;;9.13;8.25;;;18.40;1.00;;;;;;5033433;28;20033;-85
2021/06/12 04:21:28;;;;;;;8.98;8.13;;;18.40;1.00;;;;;;5032836;28;20045;-86
2021/06/12 04:23:53;;;;;;;8.93;8.23;;;18.50;1.00;;;;;;5033167;28;20037;-86
2021/06/12 04:26:19;;;;;;;9.65;8.68;;;18.30;1.00;;;;;;5032564;28;20049;-88
2021/06/12 04:28:45;;;;;;;8.25;7.28;;;18.40;1.00;;;;;;5033848;28;20478;-85
2021/06/12 04:31:10;;;;;;;9.30;7.95;;;18.50;1.00;;;;;;5033116;28;20035;-85
2021/06/12 04:33:37;;;;;;;8.65;7.93;;;18.90;1.00;;;;;;5032738;28;20052;-85
2021/06/12 04:36:03;;;;;;;8.63;7.55;;;18.90;1.00;;;;;;5033108;28;20029;-85
2021/06/12 04:38:28;;;;;;;8.70;7.38;;;18.60;1.00;;;;;;5032653;28;20119;-85
2021/06/12 04:40:54;;;;;;;9.95;7.80;;;18.70;1.00;;;;;;5032574;28;20060;-85
2021/06/12 04:43:20;;;;;;;9.30;7.97;;;18.60;1.00;;;;;;5032673;28;20037;-86
2021/06/12 04:45:47;;;;;;;8.60;7.82;;;18.70;1.00;;;;;;5032956;28;20025;-85
2021/06/12 04:48:13;;;;;;;8.48;7.57;;;18.70;1.00;;;;;;5032565;28;20096;-85
2021/06/12 04:50:41;;;;;;;9.15;8.35;;;18.80;1.00;;;;;;5032579;28;20022;-85
2021/06/12 04:53:09;;;;;;;8.75;8.05;;;18.80;1.00;;;;;;5032546;28;20053;-85
2021/06/12 04:55:35;;;;;;;8.05;7.32;;;18.80;1.00;;;;;;5033034;28;20052;-85
2021/06/12 04:58:01;;;;;;;9.65;8.50;;;18.80;1.00;;;;;;5032619;28;20149;-85
2021/06/12 05:00:27;;;;;;;9.55;7.90;;;18.80;1.00;;;;;;5032263;28;20041;-85
2021/06/12 05:02:53;;;;;;;8.68;7.82;;;18.90;1.00;;;;;;5032280;28;20595;-85
2021/06/12 05:05:18;;;;;;;9.40;8.60;;;18.90;1.00;;;;;;5032332;28;20033;-85
2021/06/12 05:07:44;;;;;;;8.73;7.97;;;19.00;1.00;;;;;;5032628;28;20036;-85
2021/06/12 05:10:10;;;;;;;8.70;7.90;;;19.10;1.00;;;;;;5032149;28;20053;-86
2021/06/12 05:12:38;;;;;;;8.27;7.47;;;19.10;1.00;;;;;;5031880;28;20616;-85
2021/06/12 05:15:06;;;;;;;8.30;7.60;;;19.20;1.00;;;;;;5032262;28;20055;-86
2021/06/12 05:17:32;;;;;;;8.55;7.68;;;19.20;1.00;;;;;;5031535;28;20029;-85
2021/06/12 05:19:58;;;;;;;8.43;7.63;;;19.20;1.00;;;;;;5032394;28;20022;-85
2021/06/12 05:22:25;;;;;;;8.60;7.85;;;19.30;1.00;;;;;;5012935;28;20072;-85
2021/06/12 05:24:52;;;;;;;8.57;7.78;;;19.50;1.00;;;;;;5031154;28;20021;-85
2021/06/12 05:27:18;;;;;;;8.52;7.82;;;19.60;1.00;;;;;;5031672;28;20025;-85
2021/06/12 05:29:45;;;;;;;8.15;7.45;;;19.60;1.00;;;;;;5031985;28;20033;-85
2021/06/12 05:32:11;;;;;;;8.52;7.63;;;19.60;1.00;;;;;;5031650;28;20025;-85
2021/06/12 05:34:37;;;;;;;10.43;8.55;;;19.60;1.00;;;;;;5032086;28;20116;-85
2021/06/12 05:37:03;;;;;;;9.30;8.50;;;19.50;1.00;;;;;;5031255;28;20040;-85
2021/06/12 05:39:29;;;;;;;8.95;8.23;;;19.70;1.00;;;;;;5031332;28;20079;-86
2021/06/12 05:41:55;;;;;;;9.40;8.45;;;19.80;1.00;;;;;;5031770;28;20422;-86
2021/06/12 05:44:21;;;;;;;8.60;7.90;;;19.80;1.00;;;;;;5031855;28;20071;-87
2021/06/12 05:46:49;;;;;;;8.73;7.93;;;19.80;1.00;;;;;;5032653;28;20056;-89
2021/06/12 05:49:15;;;;;;;8.63;7.78;;;19.90;1.00;;;;;;5031885;28;20095;-89
2021/06/12 05:51:40;;;;;;;9.15;8.25;;;20.00;1.00;;;;;;5013088;28;20029;-88
2021/06/12 05:54:06;;;;;;;10.50;8.30;;;20.00;1.00;;;;;;5031264;28;20033;-88
2021/06/12 05:56:32;;;;;;;8.45;7.45;;;20.10;1.00;;;;;;5031403;28;20026;-87
2021/06/12 05:58:57;;;;;;;9.07;7.70;;;20.20;1.00;;;;;;5032632;28;20445;-89
2021/06/12 06:01:23;;;;;;;9.00;8.23;;;20.40;1.00;;;;;;5014343;28;20117;-90
2021/06/12 06:03:49;;;;;;;9.05;8.07;;;20.40;1.00;;;;;;5031223;28;20478;-87
2021/06/12 06:06:15;;;;;;;8.90;8.10;;;20.40;1.00;;;;;;5030827;28;20041;-89
2021/06/12 06:08:40;;;;;;;9.05;8.25;;;20.50;1.00;;;;;;5014204;28;20025;-88
2021/06/12 06:11:06;;;;;;;9.68;8.15;;;20.60;1.00;;;;;;5031320;28;20037;-88
2021/06/12 06:13:42;;;;;;;8.98;7.97;;;20.70;1.00;;;;;;5013742;28;20128;-88
2021/06/12 06:16:09;;;;;;;8.38;7.55;;;20.80;1.00;;;;;;5008882;28;20100;-88
2021/06/12 06:18:36;;;;;;;8.32;7.63;;;20.90;1.00;;;;;;5009226;28;20033;-88
2021/06/12 06:21:01;;;;;;;8.32;7.43;;;20.80;1.00;;;;;;5030603;28;20033;-88
2021/06/12 06:23:27;;;;;;;8.45;7.65;;;21.00;1.00;;;;;;5012338;28;20426;-88
2021/06/12 06:25:53;;;;;;;12.02;8.32;;;20.90;1.00;;;;;;5031679;28;20025;-95
2021/06/12 06:28:18;;;;;;;8.57;7.88;;;21.10;99.90;;;;;;5031057;28;20033;-83
2021/06/12 06:30:44;;;;;;;8.68;7.78;;;21.10;1.00;;;;;;5029834;28;20446;-83
2021/06/12 06:33:10;;;;;;;9.18;7.80;;;21.20;1.00;;;;;;5030220;28;20041;-84
2021/06/12 06:35:36;;;;;;;7.55;6.80;;;21.40;99.90;;;;;;5030289;28;20021;-85
2021/06/12 06:38:01;;;;;;;8.63;7.22;;;21.50;99.90;;;;;;5031487;28;20033;-89
2021/06/12 06:40:27;;;;;;;7.72;6.50;;;21.40;99.90;;;;;;5031131;28;20490;-86
2021/06/12 06:42:53;;;;;;;6.82;6.22;;;21.40;99.90;;;;;;5030421;28;20053;-87
2021/06/12 06:45:19;;;;;;;9.23;6.32;;;21.20;99.90;;;;;;5030717;28;20029;-87
2021/06/12 06:47:45;;;;;;;7.07;6.20;;;21.20;1.00;;;;;;5030855;28;20033;-87
2021/06/12 06:50:11;;;;;;;6.78;5.85;;;21.10;99.90;;;;;;5030179;28;20100;-86
2021/06/12 06:52:37;;;;;;;6.65;5.97;;;21.20;99.90;;;;;;5031698;28;20033;-87
2021/06/12 06:55:04;;;;;;;7.10;6.25;;;21.40;99.90;;;;;;5030503;28;20518;-86
2021/06/12 06:57:29;;;;;;;7.05;6.38;;;21.40;99.90;;;;;;5030927;28;20037;-87
2021/06/12 06:59:55;;;;;;;6.90;6.30;;;21.60;99.90;;;;;;5031005;28;20220;-86
2021/06/12 07:02:21;;;;;;;7.22;6.30;;;21.60;99.90;;;;;;5030451;28;20041;-87
2021/06/12 07:04:46;;;;;;;8.25;7.32;;;21.80;99.90;;;;;;5035053;28;20021;-86
2021/06/12 07:07:12;;;;;;;7.72;6.97;;;21.80;99.90;;;;;;5034196;28;20075;-86
2021/06/12 07:09:37;;;;;;;7.10;6.30;;;21.80;99.90;;;;;;5035079;28;20029;-87
2021/06/12 07:12:04;;;;;;;8.57;6.78;;;21.90;99.90;;;;;;5035139;28;20125;-86
2021/06/12 07:14:31;;;;;;;7.18;6.57;;;22.10;99.90;;;;;;5034798;28;20030;-86
2021/06/12 07:16:56;;;;;;;6.97;6.38;;;22.10;99.90;;;;;;5034720;28;20061;-86
2021/06/12 07:19:25;;;;;;;7.45;6.70;;;22.20;99.90;;;;;;5033830;28;20057;-86
2021/06/12 07:21:51;;;;;;;8.30;7.47;;;22.40;99.90;;;;;;5033794;28;20409;-86
2021/06/12 07:24:16;;;;;;;7.90;6.97;;;22.40;99.90;;;;;;5034005;28;20018;-86
2021/06/12 07:26:42;;;;;;;8.75;7.68;;;22.40;99.90;;;;;;5034305;28;20029;-86
2021/06/12 07:29:12;;;;;;;9.10;7.75;;;22.40;99.90;;;;;;5034478;28;20076;-85
2021/06/12 07:31:39;;;;;;;9.68;8.10;;;22.40;99.90;;;;;;5032591;28;20041;-86
2021/06/12 07:34:07;;;;;;;9.40;8.57;;;22.40;99.90;;;;;;5033149;28;20040;-86
2021/06/12 07:36:33;;;;;;;9.30;8.40;;;22.40;99.90;;;;;;5033793;28;20018;-86
2021/06/12 07:38:58;;;;;;;8.73;7.82;;;22.30;99.90;;;;;;5033845;28;20563;-86
2021/06/12 07:41:24;;;;;;;8.57;7.88;;;22.40;99.90;;;;;;5018328;28;20025;-86
2021/06/12 07:43:50;;;;;;;8.52;7.80;;;22.50;99.90;;;;;;5034394;28;20059;-86
2021/06/12 07:46:16;;;;;;;8.82;8.02;;;22.70;99.90;;;;;;5033783;28;20116;-86
2021/06/12 07:48:41;;;;;;;11.23;9.20;;;22.70;99.90;;;;;;5033102;28;20091;-86
2021/06/12 07:51:07;;;;;;;9.40;8.60;;;22.70;99.90;;;;;;5033982;28;20041;-86
2021/06/12 07:53:33;;;;;;;10.02;9.00;;;22.70;99.90;;;;;;5033583;28;20039;-86
2021/06/12 07:55:59;;;;;;;9.57;8.68;;;22.70;99.90;;;;;;5015996;28;20551;-86
2021/06/12 07:58:25;;;;;;;9.02;8.13;;;23.00;99.90;;;;;;5034171;28;20087;-86
2021/06/12 08:00:50;;;;;;;9.95;9.10;;;23.20;99.90;;;;;;5033182;28;20029;-86
2021/06/12 08:03:16;;;;;;;10.35;9.32;;;23.10;99.90;;;;;;5032998;28;20037;-86
2021/06/12 08:05:42;;;;;;;11.85;9.32;;;23.20;99.90;;;;;;5033567;28;20025;-86
2021/06/12 08:08:07;;;;;;;10.52;9.63;;;23.30;99.90;;;;;;5033395;28;20027;-86
2021/06/12 08:10:33;;;;;;;10.77;9.77;;;23.50;99.90;;;;;;5033791;28;20052;-86
2021/06/12 08:12:59;;;;;;;10.95;9.85;;;23.50;99.90;;;;;;5033321;28;20056;-87
2021/06/12 08:15:24;;;;;;;10.35;8.68;;;23.70;99.90;;;;;;5032976;28;20029;-86
2021/06/12 08:17:50;;;;;;;9.60;8.80;;;23.90;99.90;;;;;;5032791;28;20036;-86
2021/06/12 08:20:16;;;;;;;11.38;10.23;;;24.20;99.90;;;;;;5033213;28;20116;-86
2021/06/12 08:22:42;;;;;;;10.75;9.75;;;24.10;99.90;;;;;;5033422;28;20124;-85
2021/06/12 08:25:09;;;;;;;11.25;9.05;;;24.30;99.90;;;;;;5033231;28;20037;-86
2021/06/12 08:27:36;;;;;;;9.95;9.15;;;24.40;99.90;;;;;;5033191;28;20042;-86
2021/06/12 08:30:04;;;;;;;10.48;9.55;;;24.30;99.90;;;;;;5032666;28;20410;-86
2021/06/12 08:32:29;;;;;;;11.82;10.02;;;24.40;99.90;;;;;;5032423;28;20053;-86
2021/06/12 08:34:55;;;;;;;11.07;10.18;;;24.50;99.90;;;;;;5033758;28;20069;-86
2021/06/12 08:37:21;;;;;;;11.15;10.13;;;24.50;99.90;;;;;;5032517;28;20068;-86
2021/06/12 08:39:46;;;;;;;12.52;11.13;;;24.50;99.90;;;;;;5032596;28;20443;-86
2021/06/12 08:42:12;;;;;;;12.32;10.82;;;24.60;99.90;;;;;;5032647;28;20034;-86
2021/06/12 08:44:40;;;;;;;12.48;11.38;;;24.50;99.90;;;;;;5032442;28;20033;-87
2021/06/12 08:47:06;;;;;;;12.20;11.00;;;24.70;99.90;;;;;;5032274;28;20088;-86
2021/06/12 08:49:32;;;;;;;15.35;13.82;;;24.70;99.90;;;;;;5033319;28;20029;-87
2021/06/12 08:51:57;;;;;;;14.50;13.15;;;24.60;99.90;;;;;;5032774;28;20449;-86
2021/06/12 08:54:27;;;;;;;14.43;13.13;;;24.50;99.90;;;;;;5032406;28;20066;-86
2021/06/12 08:56:53;;;;;;;15.15;13.55;;;24.70;99.90;;;;;;5032381;28;20028;-86
2021/06/12 08:59:19;;;;;;;14.40;13.00;;;24.50;99.90;;;;;;5032998;28;20021;-86
2021/06/12 09:01:45;;;;;;;14.98;13.25;;;24.80;99.90;;;;;;5032459;28;20082;-86
2021/06/12 09:04:24;;;;;;;14.80;13.45;;;25.00;99.90;;;;;;5032184;28;20021;-86
2021/06/12 09:06:54;;;;;;;15.10;13.70;;;25.10;99.90;;;;;;5032410;28;20116;-86
2021/06/12 09:09:39;;;;;;;16.25;14.43;;;25.10;99.90;;;;;;5032036;28;20108;-86
2021/06/12 09:12:05;;;;;;;13.25;12.05;;;25.10;99.90;;;;;;5031850;28;20243;-86
2021/06/12 09:14:31;;;;;;;14.82;13.52;;;25.10;99.90;;;;;;5031753;28;22169;-86
2021/06/12 09:16:56;;;;;;;15.85;14.35;;;25.40;99.90;;;;;;5033019;28;20032;-86
2021/06/12 09:19:22;;;;;;;14.02;12.73;;;25.40;99.90;;;;;;5032028;28;20029;-86
2021/06/12 09:21:59;;;;;;;14.68;13.32;;;25.30;99.90;;;;;;5031791;28;20398;-85
2021/06/12 09:24:49;;;;;;;15.85;14.25;;;25.30;99.90;;;;;;5031755;28;20052;-86
2021/06/12 09:27:17;;;;;;;15.27;13.85;;;25.30;99.90;;;;;;5031059;28;20029;-87
2021/06/12 09:29:50;;;;;;;15.68;14.15;;;25.50;99.90;;;;;;5032148;28;20024;-86
2021/06/12 09:32:27;;;;;;;16.02;14.48;;;25.80;99.90;;;;;;5031615;28;20029;-86
2021/06/12 09:35:07;;;;;;;17.42;15.73;;;25.60;99.90;;;;;;5027991;28;20033;-86
2021/06/12 09:37:34;;;;;;;14.80;13.30;;;25.50;99.90;;;;;;5031913;28;20022;-86
2021/06/12 09:40:13;;;;;;;15.65;14.25;;;25.80;99.90;;;;;;5031384;28;20505;-87
2021/06/12 09:43:06;;;;;;;17.00;15.40;;;26.00;99.90;;;;;;5031647;28;20437;-86
2021/06/12 09:45:35;;;;;;;16.92;15.45;;;26.00;99.90;;;;;;5028226;28;20506;-86
2021/06/12 09:48:10;;;;;;;16.88;15.20;;;26.10;99.90;;;;;;5031352;28;20041;-86
2021/06/12 09:50:36;;;;;;;14.65;13.30;;;26.40;99.90;;;;;;5031306;28;20044;-86
2021/06/12 09:53:17;;;;;;;15.13;13.75;;;26.70;99.90;;;;;;5031558;28;20065;-86
2021/06/12 09:55:43;;;;;;;14.95;13.57;;;26.40;99.90;;;;;;5032063;28;20498;-86
2021/06/12 09:58:10;;;;;;;16.55;14.88;;;26.40;99.90;;;;;;5030688;28;20037;-86
2021/06/12 10:00:47;;;;;;;14.43;13.10;;;26.50;99.90;;;;;;5031204;28;20101;-86
2021/06/12 10:03:17;;;;;;;16.80;15.32;;;26.70;99.90;;;;;;5031542;28;20029;-86
2021/06/12 10:05:44;;;;;;;17.02;15.40;;;26.50;99.90;;;;;;5031118;28;20083;-85
2021/06/12 10:08:13;;;;;;;16.10;14.63;;;26.40;99.90;;;;;;5031617;28;20053;-86
2021/06/12 10:10:38;;;;;;;15.80;14.30;;;26.80;99.90;;;;;;5029906;28;20029;-86
2021/06/12 10:13:05;;;;;;;16.27;14.18;;;26.70;99.90;;;;;;5030449;28;20567;-87
2021/06/12 10:15:32;;;;;;;14.13;12.82;;;26.50;99.90;;;;;;5031255;28;20021;-86
2021/06/12 10:17:59;;;;;;;16.00;14.50;;;26.80;99.90;;;;;;5031282;28;20502;-86
2021/06/12 10:20:25;;;;;;;15.05;13.55;;;26.60;99.90;;;;;;5015403;28;20030;-86
2021/06/12 10:22:53;;;;;;;17.13;15.63;;;26.70;99.90;;;;;;5031613;28;20049;-86
2021/06/12 10:25:22;;;;;;;15.05;13.60;;;27.30;99.90;;;;;;5030592;28;20026;-87
2021/06/12 10:27:48;;;;;;;13.82;12.60;;;27.30;99.90;;;;;;5030894;28;20460;-87
2021/06/12 10:30:17;;;;;;;13.68;12.38;;;27.30;99.90;;;;;;5030686;28;20021;-86
2021/06/12 10:32:45;;;;;;;11.90;10.80;;;27.50;99.90;;;;;;5030844;28;20120;-87
2021/06/12 10:35:14;;;;;;;12.27;11.27;;;27.30;99.90;;;;;;5031263;28;20022;-87
2021/06/12 10:38:08;;;;;;;14.23;12.90;;;27.60;99.90;;;;;;5033746;28;20250;-87
2021/06/12 10:40:49;;;;;;;11.57;10.48;;;27.50;99.90;;;;;;5035210;28;20386;-87
2021/06/12 10:43:21;;;;;;;11.70;10.50;;;27.50;99.90;;;;;;5034171;28;20044;-86
2021/06/12 10:46:08;;;;;;;10.40;9.55;;;27.80;99.90;;;;;;5034612;28;20479;-86
2021/06/12 10:48:36;;;;;;;10.68;9.68;;;27.90;99.90;;;;;;5012434;28;20033;-86
2021/06/12 10:51:07;;;;;;;10.82;9.80;;;27.80;99.90;;;;;;5034930;28;20037;-87
2021/06/12 10:53:34;;;;;;;10.68;9.88;;;27.60;99.90;;;;;;5034734;28;20040;-87
2021/06/12 10:56:02;;;;;;;11.45;10.45;;;27.80;99.90;;;;;;5034300;28;20445;-86
2021/06/12 10:58:31;;;;;;;11.20;10.02;;;27.70;99.90;;;;;;5034163;28;20029;-87
2021/06/12 11:01:08;;;;;;;11.52;10.52;;;28.00;99.90;;;;;;5034791;28;20041;-86
2021/06/12 11:04:06;;;;;;;13.95;11.85;;;28.20;99.90;;;;;;5034766;28;20091;-87
2021/06/12 11:09:30;;;;;;;11.65;9.68;;;28.10;99.90;;;;;;5034675;28;20475;-87
2021/06/12 11:12:02;;;;;;;10.40;9.43;;;28.50;99.90;;;;;;5034467;28;20033;-88
2021/06/12 11:14:36;;;;;;;10.02;9.15;;;28.60;99.90;;;;;;5017808;28;20034;-87
2021/06/12 11:17:08;;;;;;;11.32;10.25;;;28.90;99.90;;;;;;5035181;28;20049;-87
2021/06/12 11:19:42;;;;;;;225.38;35.78;;;29.00;99.90;;;;;;5034287;28;20062;-87
2021/06/12 11:22:35;;;;;;;10.50;9.40;;;29.10;99.90;;;;;;5033760;28;20146;-87
2021/06/12 11:25:11;;;;;;;10.88;9.95;;;29.20;99.90;;;;;;5034224;28;20164;-87
2021/06/12 11:27:41;;;;;;;8.88;8.10;;;28.80;99.90;;;;;;5034015;28;20104;-87
2021/06/12 11:30:23;;;;;;;8.77;7.93;;;28.90;99.90;;;;;;5034032;28;20109;-86
2021/06/12 11:32:59;;;;;;;10.30;8.57;;;29.10;99.90;;;;;;5033864;28;20033;-87
2021/06/12 11:35:50;;;;;;;9.65;8.82;;;29.00;99.90;;;;;;5018760;28;20030;-87
2021/06/12 11:38:27;;;;;;;9.50;8.75;;;29.20;99.90;;;;;;5033010;28;20045;-87
2021/06/12 11:41:02;;;;;;;8.27;7.57;;;29.30;99.90;;;;;;5030023;28;20023;-87
2021/06/12 11:43:49;;;;;;;8.05;7.45;;;29.60;99.90;;;;;;5033096;28;20498;-87
2021/06/12 11:46:25;;;;;;;8.93;8.05;;;29.80;99.90;;;;;;5034039;28;20037;-87
2021/06/12 11:48:53;;;;;;;9.35;7.18;;;30.00;99.90;;;;;;5032419;28;20056;-86
2021/06/12 11:51:32;;;;;;;7.07;6.40;;;29.60;99.90;;;;;;5033935;28;20048;-87
2021/06/12 11:54:06;;;;;;;7.38;6.88;;;30.00;99.90;;;;;;5011421;28;20049;-87
2021/06/12 11:56:35;;;;;;;7.32;6.35;;;29.90;99.90;;;;;;5015942;28;20021;-87
2021/06/12 11:59:01;;;;;;;6.72;6.20;;;30.30;99.90;;;;;;5033587;28;20053;-87
2021/06/12 12:01:43;;;;;;;7.45;6.10;;;29.90;99.90;;;;;;5034502;28;20036;-87
2021/06/12 12:04:20;;;;;;;7.13;6.47;;;30.80;99.90;;;;;;5033236;28;20033;-87
2021/06/12 12:06:55;;;;;;;6.47;5.88;;;31.00;99.90;;;;;;5033221;28;20030;-87
2021/06/12 12:09:46;;;;;;;6.45;5.90;;;32.70;99.90;;;;;;5032743;28;20084;-87
2021/06/12 12:12:15;;;;;;;6.70;6.10;;;34.40;99.90;;;;;;5025356;28;20588;-87
2021/06/12 12:14:44;;;;;;;6.63;6.10;;;36.50;99.90;;;;;;5033337;28;20052;-85
2021/06/12 12:17:21;;;;;;;7.35;5.80;;;36.80;99.90;;;;;;5033788;28;20017;-87
2021/06/12 12:20:20;;;;;;;5.68;5.25;;;38.40;99.90;;;;;;5033001;28;20033;-87
2021/06/12 12:22:49;;;;;;;6.55;5.00;;;38.40;99.90;;;;;;5017921;28;20057;-87
2021/06/12 12:25:23;;;;;;;6.13;5.63;;;39.60;99.90;;;;;;5032892;28;20026;-87
2021/06/12 12:28:06;;;;;;;5.85;4.85;;;39.90;99.90;;;;;;5032897;28;20021;-87
2021/06/12 12:30:32;;;;;;;4.72;4.32;;;40.80;99.90;;;;;;5033770;28;20026;-87
2021/06/12 12:33:12;;;;;;;5.10;4.60;;;40.80;99.90;;;;;;5032753;28;20056;-87
2021/06/12 12:35:38;;;;;;;5.47;4.97;;;40.30;99.90;;;;;;5018896;28;20098;-88
2021/06/12 12:38:12;;;;;;;6.03;5.40;;;39.80;99.90;;;;;;5032168;28;20482;-86
2021/06/12 12:40:38;;;;;;;5.80;4.90;;;40.00;99.90;;;;;;5031586;28;20022;-87
2021/06/12 12:43:05;;;;;;;5.25;4.85;;;40.30;99.90;;;;;;5015244;28;20038;-87
2021/06/12 12:45:31;;;;;;;5.22;4.70;;;41.00;99.90;;;;;;5032580;28;20032;-87
2021/06/12 12:47:57;;;;;;;5.22;4.75;;;41.00;99.90;;;;;;5032574;28;20029;-87
2021/06/12 12:50:23;;;;;;;4.65;4.25;;;41.10;99.90;;;;;;5032530;28;20039;-87
2021/06/12 12:53:25;;;;;;;7.65;6.88;;;41.00;99.90;;;;;;5032652;28;20045;-88
2021/06/12 12:55:59;;;;;;;5.28;4.65;;;41.20;99.90;;;;;;4953161;29;20039;-87
2021/06/12 12:58:26;;;;;;;5.63;5.05;;;40.50;99.90;;;;;;4952514;29;20528;-87